Latest Weather Observations for Delamere

IDD60801

Issued at 1:05 pm CST Friday 19 September 2014 (issued every 30 minutes, with the page automatically refreshed every 10 minutes)

About weather observations | Map of weather stations | Latest weather observations for NT | Other Formats
Station Details ID: 014949 Name: DELAMERE WEAPONS RANGE Lat: -15.74 Lon: 131.92 Height: 221.0 m
Data from the previous 72 hours. | See also: Recent months at Delamere
Date/Time
CST
Temp
°C
App
Temp
°C
Dew
Point
Rel
Hum
%
Delta-T
°C
Wind Press
QNH
hPa
Press
MSL
hPa
Rain
since 9 am
mm
Dir
 
Spd
km/h
Gust
km/h
Spd
kts
Gust
kts
19/01:00pm 35.5 29.4 2.9 13 17.1 E 24 32 13 17 1014.0 - 0.0
19/12:30pm 34.9 30.1 4.4 15 16.3 ENE 19 32 10 17 1015.0 - 0.0
19/12:00pm 34.3 29.5 4.9 16 15.8 NE 19 30 10 16 1015.5 1014.2 0.0
19/11:30am 33.5 28.9 6.7 19 14.8 NNE 20 33 11 18 1016.1 - 0.0
19/11:00am 32.6 27.7 6.7 20 14.2 NE 22 30 12 16 1016.6 - 0.0
19/10:30am 32.2 28.2 8.4 23 13.4 NE 19 28 10 15 1016.8 - 0.0
19/10:00am 30.3 26.8 10.3 29 11.5 NNE 19 28 10 15 1016.9 - 0.0
19/09:30am 28.7 27.1 11.7 35 9.9 N 11 15 6 8 1017.3 - 0.0
19/09:00am 27.2 25.7 10.4 35 9.5 NE 9 15 5 8 1017.3 1016.1 0.0
19/08:30am 24.5 22.3 8.0 35 8.8 NE 9 11 5 6 1017.2 - 0.0
19/08:00am 22.9 20.7 7.8 38 8.0 NE 9 13 5 7 1017.0 - 0.0
19/07:30am 20.3 18.4 6.6 41 7.0 NE 6 9 3 5 1016.6 - 0.0
19/07:00am 19.2 16.7 6.7 44 6.3 ENE 9 11 5 6 1016.3 - 0.0
19/06:30am 18.3 15.8 6.5 46 5.9 ENE 9 11 5 6 1016.0 - 0.0
19/06:00am 18.3 17.7 8.8 54 5.0 NNE 2 9 1 5 1015.7 1014.4 0.0
19/05:30am 18.7 16.7 7.2 47 5.9 NNE 7 9 4 5 1015.3 - 0.0
19/05:00am 18.9 16.8 6.7 45 6.2 ENE 7 9 4 5 1015.0 - 0.0
19/04:30am 19.8 17.5 7.5 45 6.4 E 9 13 5 7 1014.8 - 0.0
19/04:00am 19.4 17.3 6.8 44 6.4 ENE 7 9 4 5 1014.6 - 0.0
19/03:30am 19.8 17.7 6.5 42 6.7 ENE 7 7 4 4 1014.5 - 0.0
19/03:00am 20.8 20.0 6.7 40 7.2 CALM 0 0 0 0 1014.7 1013.4 0.0
19/02:30am 22.3 20.3 7.3 38 7.8 E 7 9 4 5 1014.9 - 0.0
19/02:00am 22.9 20.9 7.0 36 8.3 ESE 7 9 4 5 1015.1 - 0.0
19/01:30am 24.4 22.1 7.5 34 9.0 E 9 11 5 6 1015.1 - 0.0
19/01:00am 24.9 22.5 7.1 32 9.4 NNE 9 13 5 7 1015.0 - 0.0
19/12:30am 25.2 22.4 6.9 31 9.7 NE 11 13 6 7 1015.3 - 0.0
19/12:00am 25.4 22.5 6.6 30 9.9 ENE 11 13 6 7 1015.3 1014.0 0.0
 
Date/Time
CST
Temp
°C
App
Temp
°C
Dew
Point
Rel
Hum
%
Delta-T
°C
Wind Press
QNH
hPa
Press
MSL
hPa
Rain
since 9 am
mm
Dir
 
Spd
km/h
Gust
km/h
Spd
kts
Gust
kts
18/11:30pm 26.3 23.4 6.3 28 10.5 NE 11 13 6 7 1015.3 - 0.0
18/11:00pm 27.9 24.8 7.2 27 11.2 NE 13 17 7 9 1015.4 - 0.0
18/10:30pm 27.7 23.8 7.0 27 11.1 NE 17 24 9 13 1015.2 - 0.0
18/10:00pm 25.4 23.6 5.6 28 10.2 NNE 4 7 2 4 1014.9 - 0.0
18/09:30pm 27.4 25.2 6.2 26 11.2 SE 7 11 4 6 1014.8 - 0.0
18/09:00pm 26.8 24.5 5.7 26 11.0 E 7 9 4 5 1014.7 1013.4 0.0
18/08:30pm 27.7 25.6 5.9 25 11.5 E 6 7 3 4 1014.5 - 0.0
18/08:00pm 28.3 27.3 5.8 24 11.9 CALM 0 0 0 0 1014.0 - 0.0
18/07:30pm 29.6 28.6 5.6 22 12.7 CALM 0 0 0 0 1013.5 - 0.0
18/07:00pm 32.0 30.0 6.2 20 14.0 E 6 7 3 4 1013.0 - 0.0
18/06:30pm 33.3 30.4 6.6 19 14.7 E 11 19 6 10 1012.7 - 0.0
18/06:00pm 34.2 30.9 6.5 18 15.3 E 13 28 7 15 1012.3 1011.0 0.0
18/05:30pm 34.9 31.6 6.2 17 15.8 E 13 19 7 10 1012.0 - 0.0
18/05:00pm 34.8 30.9 5.3 16 16.0 ENE 15 24 8 13 1012.0 - 0.0
18/04:30pm 35.1 30.5 5.5 16 16.1 SE 19 28 10 15 1012.0 - 0.0
18/04:00pm 35.7 33.3 5.1 15 16.6 ENE 7 24 4 13 1012.2 - 0.0
18/03:30pm 35.6 29.9 5.0 15 16.6 NE 24 32 13 17 1012.4 - 0.0
18/03:00pm 35.4 32.1 4.8 15 16.5 ESE 11 22 6 12 1012.8 1011.6 0.0
18/02:30pm 35.1 29.7 4.6 15 16.4 E 22 35 12 19 1013.4 - 0.0
18/02:00pm 34.8 29.4 4.4 15 16.2 NE 22 33 12 18 1013.9 - 0.0
18/01:30pm 34.8 30.1 5.3 16 16.0 SE 19 28 10 15 1014.5 - 0.0
18/01:00pm 34.2 30.8 5.7 17 15.5 E 13 26 7 14 1015.3 - 0.0
18/12:30pm 33.6 30.2 7.5 20 14.6 SE 15 35 8 19 1015.9 - 0.0
18/12:00pm 34.1 30.4 8.0 20 14.7 E 17 26 9 14 1016.7 1015.5 0.0
18/11:30am 32.7 29.2 8.9 23 13.5 ENE 17 24 9 13 1017.3 - 0.0
18/11:00am 32.4 29.6 9.9 25 13.0 NE 15 24 8 13 1017.9 - 0.0
18/10:30am 31.2 29.5 11.1 29 11.7 NNE 11 20 6 11 1018.3 - 0.0
18/10:00am 29.3 28.2 13.1 37 9.7 N 11 19 6 10 1018.4 - 0.0
18/09:30am 28.0 27.9 15.0 45 8.0 N 9 15 5 8 1018.3 - 0.0
18/09:00am 26.3 26.5 14.7 48 7.0 N 7 11 4 6 1018.2 1017.0 0.0
18/08:30am 25.0 23.9 11.9 44 7.5 E 9 13 5 7 1018.0 - 0.0
18/08:00am 23.3 21.6 10.0 43 7.3 ESE 9 13 5 7 1017.7 - 0.0
18/07:30am 22.2 20.8 9.4 44 6.9 ENE 7 11 4 6 1017.2 - 0.0
18/07:00am 20.2 18.5 8.5 47 6.2 E 7 7 4 4 1016.7 - 0.0
18/06:30am 19.5 17.8 8.2 48 5.9 ENE 7 9 4 5 1016.4 - 0.0
18/06:00am 19.5 17.2 7.6 46 6.1 NE 9 13 5 7 1016.1 1014.8 0.0
18/05:30am 20.3 18.7 8.0 45 6.4 ENE 6 7 3 4 1015.9 - 0.0
18/05:00am 21.0 18.8 8.0 43 6.8 ENE 9 11 5 6 1015.7 - 0.0
18/04:30am 21.7 19.6 8.2 42 7.2 NNE 9 11 5 6 1015.0 - 0.0
18/04:00am 20.8 18.4 7.1 41 7.1 NE 9 11 5 6 1014.9 - 0.0
18/03:30am 22.1 20.2 7.5 39 7.7 E 7 13 4 7 1014.6 - 0.0
18/03:00am 23.2 20.6 7.7 37 8.2 ENE 11 13 6 7 1014.7 1013.4 0.0
18/02:30am 23.1 20.8 7.6 37 8.2 ENE 9 11 5 6 1014.8 - 0.0
18/02:00am 23.7 21.5 7.8 36 8.5 ENE 9 11 5 6 1014.9 - 0.0
18/01:30am 24.1 21.9 7.7 35 8.7 ENE 9 11 5 6 1015.0 - 0.0
18/01:00am 24.8 22.2 7.9 34 9.1 NE 11 15 6 8 1015.1 - 0.0
18/12:30am 25.5 22.6 8.1 33 9.4 ENE 13 17 7 9 1015.3 - 0.0
18/12:00am 24.8 21.3 8.7 36 8.8 E 17 28 9 15 1015.1 1013.8 0.0
 
Date/Time
CST
Temp
°C
App
Temp
°C
Dew
Point
Rel
Hum
%
Delta-T
°C
Wind Press
QNH
hPa
Press
MSL
hPa
Rain
since 9 am
mm
Dir
 
Spd
km/h
Gust
km/h
Spd
kts
Gust
kts
17/11:30pm 24.6 22.9 8.5 36 8.7 S 7 11 4 6 1014.5 - 0.0
17/11:00pm 24.3 23.2 8.3 36 8.6 SSE 4 13 2 7 1014.5 - 0.0
17/10:30pm 24.5 23.9 7.6 34 9.0 CALM 0 0 0 0 1014.5 - 0.0
17/10:00pm 25.7 25.3 8.2 33 9.5 CALM 0 0 0 0 1014.5 - 0.0
17/09:30pm 26.0 25.5 8.0 32 9.7 CALM 0 0 0 0 1014.4 - 0.0
17/09:00pm 26.7 26.2 7.7 30 10.3 CALM 0 0 0 0 1014.1 1012.9 0.0
17/08:30pm 27.3 26.8 7.7 29 10.6 CALM 0 0 0 0 1013.8 - 0.0
17/08:00pm 28.1 27.9 8.9 30 10.7 CALM 0 0 0 0 1013.5 - 0.0
17/07:30pm 28.9 28.4 8.0 27 11.5 CALM 0 0 0 0 1013.0 - 0.0
17/07:00pm 30.3 29.1 8.1 25 12.3 ESE 4 6 2 3 1012.7 - 0.0
17/06:30pm 31.9 30.3 8.2 23 13.3 SE 6 7 3 4 1012.3 - 0.0
17/06:00pm 33.0 30.6 8.5 22 13.9 ESE 11 17 6 9 1012.1 1010.8 0.0
17/05:30pm 33.6 30.4 8.3 21 14.3 SE 15 22 8 12 1011.8 - 0.0
17/05:00pm 34.0 30.8 8.6 21 14.4 ESE 15 20 8 11 1011.5 - 0.0
17/04:30pm 35.1 33.1 8.8 20 15.1 ENE 9 24 5 13 1011.3 - 0.0
17/04:00pm 35.0 32.0 9.4 21 14.8 E 15 24 8 13 1011.2 - 0.0
17/03:30pm 34.7 32.1 9.2 21 14.7 ENE 13 24 7 13 1011.5 - 0.0
17/03:00pm 34.6 31.2 9.1 21 14.7 SE 17 24 9 13 1011.7 1010.4 0.0
17/02:30pm 34.4 32.6 9.6 22 14.3 NE 9 24 5 13 1012.0 - 0.0
17/02:00pm 34.0 30.6 9.3 22 14.2 SSE 17 33 9 18 1012.4 - 0.0
17/01:30pm 35.2 33.8 10.9 23 14.4 ESE 9 28 5 15 1013.0 - 0.0
17/01:00pm 34.4 30.5 10.9 24 13.9 ENE 22 32 12 17 1013.6 - 0.0
17/12:30pm 33.1 31.0 11.0 26 13.0 NE 13 20 7 11 1014.4 - 0.0
17/12:00pm 32.9 30.5 11.4 27 12.7 E 15 24 8 13 1014.9 1013.6 0.0
17/11:30am 32.4 29.7 11.6 28 12.3 NNE 17 32 9 17 1015.4 - 0.0
17/11:00am 31.5 29.0 12.3 31 11.4 ENE 17 26 9 14 1015.7 - 0.0
17/10:30am 30.5 28.6 12.9 34 10.5 N 15 22 8 12 1016.1 - 0.0
17/10:00am 29.7 29.6 16.1 43 8.5 N 11 20 6 11 1016.3 - 0.0
17/09:30am 27.1 27.2 16.4 52 6.7 NNW 11 17 6 9 1016.4 - 0.0
17/09:00am 25.6 26.0 15.3 53 6.3 N 7 11 4 6 1016.3 1015.0 0.0
17/08:30am 24.4 24.2 13.0 49 6.7 E 6 9 3 5 1016.0 - 0.0
17/08:00am 22.3 21.0 11.1 49 6.3 E 9 13 5 7 1016.0 - 0.0
17/07:30am 20.9 19.3 10.1 50 5.9 ESE 9 13 5 7 1015.5 - 0.0
17/07:00am 19.8 18.4 9.4 51 5.6 E 7 9 4 5 1014.9 - 0.0
17/06:30am 19.7 18.4 9.3 51 5.6 SE 6 11 3 6 1014.5 - 0.0
17/06:00am 19.4 18.7 8.7 50 5.6 E 2 6 1 3 1014.0 1012.8 0.0
17/05:30am 19.7 19.3 8.4 48 5.9 CALM 0 0 0 0 1013.6 - 0.0
17/05:00am 20.3 18.9 8.9 48 6.1 ENE 6 9 3 5 1013.1 - 0.0
17/04:30am 20.7 18.8 9.0 47 6.3 ENE 9 11 5 6 1012.7 - 0.0
17/04:00am 20.5 18.8 8.5 46 6.3 E 7 9 4 5 1012.6 - 0.0
17/03:30am 21.3 19.7 8.6 44 6.8 E 7 7 4 4 1012.7 - 0.0
17/03:00am 22.0 20.3 8.5 42 7.2 E 7 11 4 6 1012.7 1011.5 0.0
17/02:30am 23.2 20.5 8.9 40 7.7 E 13 19 7 10 1012.7 - 0.0
17/02:00am 23.6 21.6 8.5 38 8.1 E 9 11 5 6 1012.7 - 0.0
17/01:30am 24.6 22.2 8.5 36 8.7 ENE 11 15 6 8 1012.5 - 0.0
17/01:00am 25.5 22.8 8.9 35 9.1 NE 13 17 7 9 1012.7 - 0.0
17/12:30am 25.6 22.8 8.6 34 9.3 NE 13 20 7 11 1012.8 - 0.0
17/12:00am 25.7 23.6 6.8 30 10.0 NNE 7 9 4 5 1012.7 1011.5 0.0
 
Date/Time
CST
Temp
°C
App
Temp
°C
Dew
Point
Rel
Hum
%
Delta-T
°C
Wind Press
QNH
hPa
Press
MSL
hPa
Rain
since 9 am
mm
Dir
 
Spd
km/h
Gust
km/h
Spd
kts
Gust
kts
16/11:30pm 26.0 24.0 7.1 30 10.1 NNE 7 9 4 5 1012.6 - 0.0
16/11:00pm 25.7 23.7 6.3 29 10.2 NNE 6 7 3 4 1012.6 - 0.0
16/10:30pm 26.2 24.1 6.8 29 10.3 NNE 7 9 4 5 1012.8 - 0.0
16/10:00pm 25.7 23.5 6.3 29 10.2 NNE 7 9 4 5 1012.7 - 0.0
16/09:30pm 25.8 23.7 5.9 28 10.4 ENE 6 7 3 4 1012.6 - 0.0
16/09:00pm 26.9 26.5 12.5 40 8.4 ENE 6 9 3 5 1012.3 1011.0 0.0
16/08:30pm 27.2 27.8 12.0 38 8.8 CALM 0 0 0 0 1012.0 - 0.0
16/08:00pm 28.1 28.5 11.2 35 9.7 CALM 0 0 0 0 1011.7 - 0.0
16/07:30pm 29.5 30.1 12.0 34 10.3 CALM 0 4 0 2 1011.2 - 0.0
16/07:00pm 31.3 31.0 12.6 31 11.2 ENE 6 6 3 3 1010.8 - 0.0
16/06:30pm 32.8 32.2 13.4 30 11.8 NE 9 13 5 7 1010.5 - 0.0
16/06:00pm 33.8 32.9 13.8 30 12.3 ENE 11 15 6 8 1010.2 1008.9 0.0
16/05:30pm 34.1 33.7 14.1 30 12.4 ENE 9 15 5 8 1010.1 - 0.0
16/05:00pm 34.6 33.6 14.5 30 12.5 ENE 13 24 7 13 1010.1 - 0.0
16/04:30pm 34.5 33.8 14.4 30 12.5 NE 11 22 6 12 1010.1 - 0.0
16/04:00pm 34.4 34.4 17.2 36 11.1 E 13 24 7 13 1010.2 - 0.0
16/03:30pm 34.7 34.6 17.0 35 11.4 ENE 13 24 7 13 1010.3 - 0.0
16/03:00pm 34.6 32.8 15.5 32 12.1 E 19 30 10 16 1010.7 1009.4 0.0
16/02:30pm 34.0 31.7 14.0 30 12.3 E 19 26 10 14 1011.1 - 0.0
16/02:00pm 34.4 32.9 14.3 30 12.5 NNE 15 30 8 16 1011.4 - 0.0
16/01:30pm 34.2 30.8 12.5 27 13.1 NNE 22 30 12 16 1011.8 - 0.0

Other Formats:

Comma delimited format used in spreadsheet applications
http://www.bom.gov.au/fwo/IDD60801/IDD60801.94225.axf

JavaScript Object Notation format (JSON) in row-major order
http://www.bom.gov.au/fwo/IDD60801/IDD60801.94225.json